Sagar Sampada — VWXS — position and weather

sailwx.info

Track history (hours):
 
Tides and Currents Weather Stations Pressure Air Temp Water Temp Dewpoint Dewpoint Depression Visibility Wind Speed Wind Dir Waves Ship Positions

Oceanographic research ship Sagar Sampada (India)

Detailed information on ship capabilities available from University of Delaware's Ocean Information Center.

Last reported at 2020-Mar-22 12:10 UTC. Time now 2020-Mar-31 13:24 UTC.
Position N 05°48' E 080°06'.
Warning: this ship's position is 9 days out of date.

Type: Other ship. MMSI: 419323000.

Wind from 140 at 14 knots

Date/timePositionNaut miles runAvg speedWind from/ knotsBaromVisibWave heightAir tempDewpointWater temp
2020-Mar-22 12:10N 05°48' E 080°06'30 9.9 140 / 14
2020-Mar-22 09:10N 05°48' E 080°36'   130 / 161007.7 9.2
2020-Mar-18 20:40N 13°06' E 080°18'0 0.0 160 / 4
2020-Mar-18 18:10N 13°06' E 080°18'0 0.0 130 / 4
2020-Mar-18 15:10N 13°06' E 080°18'0 0.0 070 / 4
2020-Mar-18 12:10N 13°06' E 080°18'0 0.0 090 / 6
2020-Mar-18 09:10N 13°06' E 080°18'0 0.0 070 / 4
2020-Mar-18 06:10N 13°06' E 080°18'0 0.0 140 / 8
2020-Mar-18 03:10N 13°06' E 080°18'0 0.0 310
2020-Mar-18 00:10N 13°06' E 080°18'0 0.0 130 / 2
2020-Mar-17 21:10N 13°06' E 080°18'0 0.0 130 / 4
2020-Mar-17 18:10N 13°06' E 080°18'0 0.0 130 / 4
2020-Mar-17 15:10N 13°06' E 080°18'0 0.0 120 / 4
2020-Mar-17 12:10N 13°06' E 080°18'0 0.0 120 / 4 29.2
2020-Mar-17 09:10N 13°06' E 080°18'0 0.0 100 / 4 29.4
2020-Mar-17 05:40N 13°06' E 080°18'0 0.0 100 / 4 28.6
2020-Mar-17 03:10N 13°06' E 080°18'0 0.0 100 / 4
2020-Mar-17 00:10N 13°06' E 080°18'0 0.0 030 / 4
2020-Mar-16 21:10N 13°06' E 080°18'0 0.0 010 / 4
2020-Mar-16 18:10N 13°06' E 080°18'0 0.0 010 / 4
2020-Mar-16 14:40N 13°06' E 080°18'0 0.0 020 / 6
2020-Mar-16 11:40N 13°06' E 080°18'6 2.3 020 / 6
2020-Mar-16 09:10N 13°06' E 080°24'0 0.0 360 / 8
2020-Mar-16 06:10N 13°06' E 080°24'0 0.0 020 / 6
2020-Mar-16 03:10N 13°06' E 080°24'0 0.0 030 / 6
2020-Mar-16 00:10N 13°06' E 080°24'0 0.0 030 / 8
2020-Mar-15 20:40N 13°06' E 080°24'0 0.0 020 / 8
2020-Mar-15 18:10N 13°06' E 080°24'0 0.0
2020-Mar-15 15:10N 13°06' E 080°24'0 0.0 030 / 8
2020-Mar-15 12:10N 13°06' E 080°24'6 1.9 040 / 8 25.8
2020-Mar-15 09:10N 13°06' E 080°30'219 6.1 350 / 6
2020-Mar-13 21:10N 16°12' E 082°30'21 7.1 100 / 14
2020-Mar-13 18:10N 16°30' E 082°42'21 7.0 090 / 14
2020-Mar-13 15:10N 16°42' E 083°00'21 7.1 100 / 10
2020-Mar-13 12:10N 17°00' E 083°12'8 2.8 100 / 10
2020-Mar-13 09:10N 17°06' E 083°18'21 7.0 280 / 8
2020-Mar-13 06:10N 16°54' E 083°00'6 1.7 090 / 10
2020-Mar-13 02:40N 17°00' E 083°00'12 4.8 070 / 12
2020-Mar-13 00:10N 17°12' E 083°00'8 2.8 160 / 4
2020-Mar-12 21:10N 17°18' E 083°06'8 2.8 100 / 10
2020-Mar-12 18:10N 17°24' E 083°12'6 2.0 110 / 12
2020-Mar-12 15:10N 17°18' E 083°12'12 4.0 160 / 12
2020-Mar-12 12:10N 17°06' E 083°12'   170 / 12
Track history (hours):
 
Tides and Currents Weather Stations Pressure Air Temp Water Temp Dewpoint Dewpoint Depression Visibility Wind Speed Wind Dir Waves Ship Positions

Oceanographic research ship Sagar Sampada (India)

Detailed information on ship capabilities available from University of Delaware's Ocean Information Center.

Last reported at 2020-Mar-22 12:10 UTC. Time now 2020-Mar-31 13:24 UTC.
Position N 05°48' E 080°06'.
Warning: this ship's position is 9 days out of date.

Type: Other ship. MMSI: 419323000.

Wind from 140 at 14 knots

Date/timePositionNaut miles runAvg speedWind from/ knotsBaromVisibWave heightAir tempDewpointWater temp
2020-Mar-22 12:10N 05°48' E 080°06'30 9.9 140 / 14
2020-Mar-22 09:10N 05°48' E 080°36'   130 / 161007.7 9.2
2020-Mar-18 20:40N 13°06' E 080°18'0 0.0 160 / 4
2020-Mar-18 18:10N 13°06' E 080°18'0 0.0 130 / 4
2020-Mar-18 15:10N 13°06' E 080°18'0 0.0 070 / 4
2020-Mar-18 12:10N 13°06' E 080°18'0 0.0 090 / 6
2020-Mar-18 09:10N 13°06' E 080°18'0 0.0 070 / 4
2020-Mar-18 06:10N 13°06' E 080°18'0 0.0 140 / 8
2020-Mar-18 03:10N 13°06' E 080°18'0 0.0 310
2020-Mar-18 00:10N 13°06' E 080°18'0 0.0 130 / 2
2020-Mar-17 21:10N 13°06' E 080°18'0 0.0 130 / 4
2020-Mar-17 18:10N 13°06' E 080°18'0 0.0 130 / 4
2020-Mar-17 15:10N 13°06' E 080°18'0 0.0 120 / 4
2020-Mar-17 12:10N 13°06' E 080°18'0 0.0 120 / 4 29.2
2020-Mar-17 09:10N 13°06' E 080°18'0 0.0 100 / 4 29.4
2020-Mar-17 05:40N 13°06' E 080°18'0 0.0 100 / 4 28.6
2020-Mar-17 03:10N 13°06' E 080°18'0 0.0 100 / 4
2020-Mar-17 00:10N 13°06' E 080°18'0 0.0 030 / 4
2020-Mar-16 21:10N 13°06' E 080°18'0 0.0 010 / 4
2020-Mar-16 18:10N 13°06' E 080°18'0 0.0 010 / 4
2020-Mar-16 14:40N 13°06' E 080°18'0 0.0 020 / 6
2020-Mar-16 11:40N 13°06' E 080°18'6 2.3 020 / 6
2020-Mar-16 09:10N 13°06' E 080°24'0 0.0 360 / 8
2020-Mar-16 06:10N 13°06' E 080°24'0 0.0 020 / 6
2020-Mar-16 03:10N 13°06' E 080°24'0 0.0 030 / 6
2020-Mar-16 00:10N 13°06' E 080°24'0 0.0 030 / 8
2020-Mar-15 20:40N 13°06' E 080°24'0 0.0 020 / 8
2020-Mar-15 18:10N 13°06' E 080°24'0 0.0
2020-Mar-15 15:10N 13°06' E 080°24'0 0.0 030 / 8
2020-Mar-15 12:10N 13°06' E 080°24'6 1.9 040 / 8 25.8
2020-Mar-15 09:10N 13°06' E 080°30'219 6.1 350 / 6
2020-Mar-13 21:10N 16°12' E 082°30'21 7.1 100 / 14
2020-Mar-13 18:10N 16°30' E 082°42'21 7.0 090 / 14
2020-Mar-13 15:10N 16°42' E 083°00'21 7.1 100 / 10
2020-Mar-13 12:10N 17°00' E 083°12'8 2.8 100 / 10
2020-Mar-13 09:10N 17°06' E 083°18'21 7.0 280 / 8
2020-Mar-13 06:10N 16°54' E 083°00'6 1.7 090 / 10
2020-Mar-13 02:40N 17°00' E 083°00'12 4.8 070 / 12
2020-Mar-13 00:10N 17°12' E 083°00'8 2.8 160 / 4
2020-Mar-12 21:10N 17°18' E 083°06'8 2.8 100 / 10
2020-Mar-12 18:10N 17°24' E 083°12'6 2.0 110 / 12
2020-Mar-12 15:10N 17°18' E 083°12'12 4.0 160 / 12
2020-Mar-12 12:10N 17°06' E 083°12'   170 / 12

Dump ship's entire track history